Tingley, Iowa
Current Conditions -  °F | °C
As of 10:15 AM on Wednesday 22 Oct 2014 (Local Time) from KCSQ Reporting Station
Overcast Overcast  
Wind Chill: 52°   Ceiling: 3500
Heat Index: 52°   Visibility: 10mi
Dew Point: 43°   Wind: 16mph
Humidity: 71%   Direction: 160°SSE
Pressure: 30.2"   Gusts: 23mph
Location:  40.85°N, 94.2°W
Report Text: KCSQ 221515Z AUTO 16014G20KT 10SM BKN035 OVC065 11/06 A3020 RMK AO2
Loading
Personal Weather Stations






























Interactive Weather Map
Tropical Storm Tracking
New forecast layout! Learn more

10-Day Weather Forecast

Advertisements
Track Severe Weather on mobile